sensor_id;sensor_type;location;lat;lon;timestamp;P1;durP1;ratioP1;P2;durP2;ratioP2
52035;SDS011;38046;49.448;32.074;2023-03-29T00:01:49;2.00;;;1.90;;
52035;SDS011;38046;49.448;32.074;2023-03-29T00:04:16;2.17;;;2.00;;
52035;SDS011;38046;49.448;32.074;2023-03-29T00:06:44;2.83;;;2.28;;
52035;SDS011;38046;49.448;32.074;2023-03-29T00:09:11;2.00;;;1.90;;
52035;SDS011;38046;49.448;32.074;2023-03-29T00:11:42;2.25;;;2.13;;
52035;SDS011;38046;49.448;32.074;2023-03-29T00:14:08;2.42;;;2.28;;
52035;SDS011;38046;49.448;32.074;2023-03-29T00:16:35;2.65;;;2.28;;
52035;SDS011;38046;49.448;32.074;2023-03-29T00:19:00;3.53;;;2.63;;
52035;SDS011;38046;49.448;32.074;2023-03-29T00:21:26;2.78;;;2.40;;
52035;SDS011;38046;49.448;32.074;2023-03-29T00:23:52;3.63;;;2.55;;
52035;SDS011;38046;49.448;32.074;2023-03-29T00:26:17;2.47;;;2.28;;
52035;SDS011;38046;49.448;32.074;2023-03-29T00:28:43;2.50;;;2.30;;
52035;SDS011;38046;49.448;32.074;2023-03-29T00:31:10;2.58;;;2.38;;
52035;SDS011;38046;49.448;32.074;2023-03-29T00:33:37;2.95;;;2.50;;
52035;SDS011;38046;49.448;32.074;2023-03-29T00:36:04;2.35;;;2.15;;
52035;SDS011;38046;49.448;32.074;2023-03-29T00:38:31;2.85;;;2.60;;
52035;SDS011;38046;49.448;32.074;2023-03-29T00:40:57;2.80;;;2.60;;
52035;SDS011;38046;49.448;32.074;2023-03-29T00:43:23;3.58;;;2.55;;
52035;SDS011;38046;49.448;32.074;2023-03-29T00:45:49;2.92;;;2.67;;
52035;SDS011;38046;49.448;32.074;2023-03-29T00:48:22;3.03;;;2.72;;
52035;SDS011;38046;49.448;32.074;2023-03-29T00:51:00;3.10;;;2.80;;
52035;SDS011;38046;49.448;32.074;2023-03-29T00:58:36;2.50;;;2.30;;
52035;SDS011;38046;49.448;32.074;2023-03-29T01:04:39;2.60;;;2.40;;
52035;SDS011;38046;49.448;32.074;2023-03-29T01:07:11;1.88;;;1.77;;
52035;SDS011;38046;49.448;32.074;2023-03-29T01:09:43;2.25;;;2.15;;
52035;SDS011;38046;49.448;32.074;2023-03-29T01:12:16;2.40;;;2.20;;
52035;SDS011;38046;49.448;32.074;2023-03-29T01:14:51;2.60;;;2.40;;
52035;SDS011;38046;49.448;32.074;2023-03-29T01:17:23;2.53;;;2.33;;
52035;SDS011;38046;49.448;32.074;2023-03-29T01:19:52;2.78;;;2.50;;
52035;SDS011;38046;49.448;32.074;2023-03-29T01:28:32;2.67;;;2.47;;
52035;SDS011;38046;49.448;32.074;2023-03-29T01:31:14;3.60;;;2.85;;
52035;SDS011;38046;49.448;32.074;2023-03-29T01:33:47;2.80;;;2.60;;
52035;SDS011;38046;49.448;32.074;2023-03-29T01:36:17;3.58;;;3.00;;
52035;SDS011;38046;49.448;32.074;2023-03-29T01:39:05;3.00;;;2.80;;
52035;SDS011;38046;49.448;32.074;2023-03-29T01:41:39;2.63;;;2.42;;
52035;SDS011;38046;49.448;32.074;2023-03-29T01:44:12;3.10;;;2.75;;
52035;SDS011;38046;49.448;32.074;2023-03-29T01:46:52;2.83;;;2.63;;
52035;SDS011;38046;49.448;32.074;2023-03-29T01:49:37;2.60;;;2.40;;
52035;SDS011;38046;49.448;32.074;2023-03-29T01:52:23;2.88;;;2.60;;
52035;SDS011;38046;49.448;32.074;2023-03-29T01:54:53;2.70;;;2.50;;
52035;SDS011;38046;49.448;32.074;2023-03-29T01:57:24;3.15;;;2.67;;
52035;SDS011;38046;49.448;32.074;2023-03-29T01:59:51;2.80;;;2.60;;
52035;SDS011;38046;49.448;32.074;2023-03-29T02:02:19;3.65;;;3.17;;
52035;SDS011;38046;49.448;32.074;2023-03-29T02:04:48;3.10;;;2.78;;
52035;SDS011;38046;49.448;32.074;2023-03-29T02:07:18;3.30;;;3.03;;
52035;SDS011;38046;49.448;32.074;2023-03-29T02:09:46;4.15;;;2.90;;
52035;SDS011;38046;49.448;32.074;2023-03-29T02:12:16;3.45;;;2.80;;
52035;SDS011;38046;49.448;32.074;2023-03-29T02:14:42;3.15;;;2.88;;
52035;SDS011;38046;49.448;32.074;2023-03-29T02:17:12;3.17;;;2.88;;
52035;SDS011;38046;49.448;32.074;2023-03-29T02:19:40;3.10;;;2.70;;
52035;SDS011;38046;49.448;32.074;2023-03-29T02:22:07;3.13;;;2.83;;
52035;SDS011;38046;49.448;32.074;2023-03-29T02:24:37;2.88;;;2.65;;
52035;SDS011;38046;49.448;32.074;2023-03-29T02:27:06;3.00;;;2.70;;
52035;SDS011;38046;49.448;32.074;2023-03-29T02:29:32;2.60;;;2.40;;
52035;SDS011;38046;49.448;32.074;2023-03-29T02:31:58;2.85;;;2.58;;
52035;SDS011;38046;49.448;32.074;2023-03-29T02:34:34;2.50;;;2.30;;
52035;SDS011;38046;49.448;32.074;2023-03-29T02:37:12;4.00;;;2.83;;
52035;SDS011;38046;49.448;32.074;2023-03-29T02:39:42;2.97;;;2.70;;
52035;SDS011;38046;49.448;32.074;2023-03-29T02:42:11;3.10;;;2.85;;
52035;SDS011;38046;49.448;32.074;2023-03-29T02:44:41;3.22;;;2.90;;
52035;SDS011;38046;49.448;32.074;2023-03-29T02:47:14;3.30;;;3.00;;
52035;SDS011;38046;49.448;32.074;2023-03-29T02:49:48;3.13;;;2.83;;
52035;SDS011;38046;49.448;32.074;2023-03-29T02:52:15;3.03;;;2.70;;
52035;SDS011;38046;49.448;32.074;2023-03-29T02:54:46;2.92;;;2.72;;
52035;SDS011;38046;49.448;32.074;2023-03-29T02:57:14;3.20;;;2.90;;
52035;SDS011;38046;49.448;32.074;2023-03-29T02:59:39;3.22;;;2.92;;
52035;SDS011;38046;49.448;32.074;2023-03-29T03:02:08;2.95;;;2.75;;
52035;SDS011;38046;49.448;32.074;2023-03-29T03:04:35;3.65;;;3.22;;
52035;SDS011;38046;49.448;32.074;2023-03-29T03:07:01;2.83;;;2.63;;
52035;SDS011;38046;49.448;32.074;2023-03-29T03:09:30;2.80;;;2.53;;
52035;SDS011;38046;49.448;32.074;2023-03-29T03:11:56;3.00;;;2.70;;
52035;SDS011;38046;49.448;32.074;2023-03-29T03:14:21;2.92;;;2.60;;
52035;SDS011;38046;49.448;32.074;2023-03-29T03:16:47;2.88;;;2.67;;
52035;SDS011;38046;49.448;32.074;2023-03-29T03:19:14;2.95;;;2.75;;
52035;SDS011;38046;49.448;32.074;2023-03-29T03:21:39;3.50;;;2.85;;
52035;SDS011;38046;49.448;32.074;2023-03-29T03:24:05;3.10;;;2.80;;
52035;SDS011;38046;49.448;32.074;2023-03-29T03:26:31;3.15;;;2.72;;
52035;SDS011;38046;49.448;32.074;2023-03-29T03:28:57;2.92;;;2.63;;
52035;SDS011;38046;49.448;32.074;2023-03-29T03:31:23;3.58;;;2.75;;
52035;SDS011;38046;49.448;32.074;2023-03-29T03:33:49;3.20;;;2.90;;
52035;SDS011;38046;49.448;32.074;2023-03-29T03:36:15;2.70;;;2.50;;
52035;SDS011;38046;49.448;32.074;2023-03-29T03:38:40;2.88;;;2.67;;
52035;SDS011;38046;49.448;32.074;2023-03-29T03:41:07;2.70;;;2.50;;
52035;SDS011;38046;49.448;32.074;2023-03-29T03:43:33;4.25;;;2.55;;
52035;SDS011;38046;49.448;32.074;2023-03-29T03:45:59;2.70;;;2.50;;
52035;SDS011;38046;49.448;32.074;2023-03-29T03:48:25;2.88;;;2.53;;
52035;SDS011;38046;49.448;32.074;2023-03-29T03:50:52;2.70;;;2.50;;
52035;SDS011;38046;49.448;32.074;2023-03-29T03:53:20;2.97;;;2.50;;
52035;SDS011;38046;49.448;32.074;2023-03-29T03:55:46;2.80;;;2.60;;
52035;SDS011;38046;49.448;32.074;2023-03-29T03:58:13;2.55;;;2.35;;
52035;SDS011;38046;49.448;32.074;2023-03-29T04:00:39;2.63;;;2.42;;
52035;SDS011;38046;49.448;32.074;2023-03-29T04:03:05;2.70;;;2.50;;
52035;SDS011;38046;49.448;32.074;2023-03-29T04:05:31;3.03;;;2.75;;
52035;SDS011;38046;49.448;32.074;2023-03-29T04:07:56;2.70;;;2.50;;
52035;SDS011;38046;49.448;32.074;2023-03-29T04:10:22;3.00;;;2.67;;
52035;SDS011;38046;49.448;32.074;2023-03-29T04:12:48;2.55;;;2.35;;
52035;SDS011;38046;49.448;32.074;2023-03-29T04:15:14;3.10;;;2.80;;
52035;SDS011;38046;49.448;32.074;2023-03-29T04:17:41;3.88;;;2.83;;
52035;SDS011;38046;49.448;32.074;2023-03-29T04:20:08;2.70;;;2.50;;
52035;SDS011;38046;49.448;32.074;2023-03-29T04:22:35;2.90;;;2.70;;
52035;SDS011;38046;49.448;32.074;2023-03-29T04:25:01;3.17;;;2.80;;
52035;SDS011;38046;49.448;32.074;2023-03-29T04:27:27;3.17;;;2.70;;
52035;SDS011;38046;49.448;32.074;2023-03-29T04:29:52;2.83;;;2.63;;
52035;SDS011;38046;49.448;32.074;2023-03-29T04:32:18;2.75;;;2.55;;
52035;SDS011;38046;49.448;32.074;2023-03-29T04:34:44;3.25;;;2.58;;
52035;SDS011;38046;49.448;32.074;2023-03-29T04:37:09;2.97;;;2.70;;
52035;SDS011;38046;49.448;32.074;2023-03-29T04:39:35;3.28;;;2.70;;
52035;SDS011;38046;49.448;32.074;2023-03-29T04:42:02;2.63;;;2.42;;
52035;SDS011;38046;49.448;32.074;2023-03-29T04:44:29;2.92;;;2.65;;
52035;SDS011;38046;49.448;32.074;2023-03-29T04:46:57;3.03;;;2.70;;
52035;SDS011;38046;49.448;32.074;2023-03-29T04:49:23;3.10;;;2.80;;
52035;SDS011;38046;49.448;32.074;2023-03-29T04:51:50;2.70;;;2.50;;
52035;SDS011;38046;49.448;32.074;2023-03-29T04:54:15;4.15;;;2.75;;
52035;SDS011;38046;49.448;32.074;2023-03-29T04:56:41;2.72;;;2.53;;
52035;SDS011;38046;49.448;32.074;2023-03-29T04:59:07;2.75;;;2.55;;
52035;SDS011;38046;49.448;32.074;2023-03-29T05:01:33;2.90;;;2.65;;
52035;SDS011;38046;49.448;32.074;2023-03-29T05:03:59;3.25;;;2.88;;
52035;SDS011;38046;49.448;32.074;2023-03-29T05:06:25;3.13;;;2.70;;
52035;SDS011;38046;49.448;32.074;2023-03-29T05:08:50;4.80;;;3.10;;
52035;SDS011;38046;49.448;32.074;2023-03-29T05:11:16;3.42;;;2.88;;
52035;SDS011;38046;49.448;32.074;2023-03-29T05:13:43;3.08;;;2.78;;
52035;SDS011;38046;49.448;32.074;2023-03-29T05:16:09;3.10;;;2.67;;
52035;SDS011;38046;49.448;32.074;2023-03-29T05:18:35;3.40;;;3.00;;
52035;SDS011;38046;49.448;32.074;2023-03-29T05:21:01;3.67;;;3.20;;
52035;SDS011;38046;49.448;32.074;2023-03-29T05:23:27;3.45;;;3.00;;
52035;SDS011;38046;49.448;32.074;2023-03-29T05:25:52;4.78;;;2.85;;
52035;SDS011;38046;49.448;32.074;2023-03-29T05:28:18;4.10;;;3.00;;
52035;SDS011;38046;49.448;32.074;2023-03-29T05:30:45;3.05;;;2.75;;
52035;SDS011;38046;49.448;32.074;2023-03-29T05:33:12;3.47;;;2.90;;
52035;SDS011;38046;49.448;32.074;2023-03-29T05:35:38;3.42;;;2.60;;
52035;SDS011;38046;49.448;32.074;2023-03-29T05:38:03;2.78;;;2.55;;
52035;SDS011;38046;49.448;32.074;2023-03-29T05:40:29;3.80;;;3.03;;
52035;SDS011;38046;49.448;32.074;2023-03-29T05:42:56;4.20;;;2.90;;
52035;SDS011;38046;49.448;32.074;2023-03-29T05:45:23;3.08;;;2.67;;
52035;SDS011;38046;49.448;32.074;2023-03-29T05:47:52;2.95;;;2.72;;
52035;SDS011;38046;49.448;32.074;2023-03-29T05:50:18;3.20;;;2.75;;
52035;SDS011;38046;49.448;32.074;2023-03-29T05:52:43;3.67;;;2.80;;
52035;SDS011;38046;49.448;32.074;2023-03-29T05:55:10;2.85;;;2.60;;
52035;SDS011;38046;49.448;32.074;2023-03-29T05:57:35;3.10;;;2.80;;
52035;SDS011;38046;49.448;32.074;2023-03-29T06:00:03;3.38;;;3.08;;
52035;SDS011;38046;49.448;32.074;2023-03-29T06:02:40;4.40;;;2.90;;
52035;SDS011;38046;49.448;32.074;2023-03-29T06:05:06;3.03;;;2.72;;
52035;SDS011;38046;49.448;32.074;2023-03-29T06:07:33;3.60;;;2.97;;
52035;SDS011;38046;49.448;32.074;2023-03-29T06:09:58;3.05;;;2.47;;
52035;SDS011;38046;49.448;32.074;2023-03-29T06:12:24;3.33;;;3.03;;
52035;SDS011;38046;49.448;32.074;2023-03-29T06:14:50;3.25;;;2.80;;
52035;SDS011;38046;49.448;32.074;2023-03-29T06:17:15;3.03;;;2.83;;
52035;SDS011;38046;49.448;32.074;2023-03-29T06:19:41;3.72;;;3.15;;
52035;SDS011;38046;49.448;32.074;2023-03-29T06:22:08;3.40;;;3.10;;
52035;SDS011;38046;49.448;32.074;2023-03-29T06:24:34;6.18;;;3.05;;
52035;SDS011;38046;49.448;32.074;2023-03-29T06:27:00;3.22;;;2.88;;
52035;SDS011;38046;49.448;32.074;2023-03-29T06:29:26;3.30;;;3.00;;
52035;SDS011;38046;49.448;32.074;2023-03-29T06:31:52;3.67;;;2.83;;
52035;SDS011;38046;49.448;32.074;2023-03-29T06:34:18;3.13;;;2.75;;
52035;SDS011;38046;49.448;32.074;2023-03-29T06:36:45;3.17;;;2.70;;
52035;SDS011;38046;49.448;32.074;2023-03-29T06:39:11;3.78;;;2.78;;
52035;SDS011;38046;49.448;32.074;2023-03-29T06:41:37;2.90;;;2.70;;
52035;SDS011;38046;49.448;32.074;2023-03-29T06:44:03;3.20;;;2.90;;
52035;SDS011;38046;49.448;32.074;2023-03-29T06:46:29;4.13;;;3.08;;
52035;SDS011;38046;49.448;32.074;2023-03-29T06:48:55;3.92;;;3.00;;
52035;SDS011;38046;49.448;32.074;2023-03-29T06:51:21;2.83;;;2.63;;
52035;SDS011;38046;49.448;32.074;2023-03-29T06:53:46;3.05;;;2.75;;
52035;SDS011;38046;49.448;32.074;2023-03-29T06:56:12;3.30;;;3.00;;
52035;SDS011;38046;49.448;32.074;2023-03-29T06:58:38;3.35;;;2.78;;
52035;SDS011;38046;49.448;32.074;2023-03-29T07:01:04;2.88;;;2.67;;
52035;SDS011;38046;49.448;32.074;2023-03-29T07:03:31;2.92;;;2.72;;
52035;SDS011;38046;49.448;32.074;2023-03-29T07:06:00;5.15;;;2.97;;
52035;SDS011;38046;49.448;32.074;2023-03-29T07:08:34;3.08;;;2.78;;
52035;SDS011;38046;49.448;32.074;2023-03-29T07:11:07;2.80;;;2.60;;
52035;SDS011;38046;49.448;32.074;2023-03-29T07:13:38;3.22;;;2.92;;
52035;SDS011;38046;49.448;32.074;2023-03-29T07:16:07;3.15;;;2.85;;
52035;SDS011;38046;49.448;32.074;2023-03-29T07:18:37;3.25;;;2.95;;
52035;SDS011;38046;49.448;32.074;2023-03-29T07:21:05;3.92;;;3.08;;
52035;SDS011;38046;49.448;32.074;2023-03-29T07:23:31;3.50;;;3.20;;
52035;SDS011;38046;49.448;32.074;2023-03-29T07:25:57;4.88;;;3.10;;
52035;SDS011;38046;49.448;32.074;2023-03-29T07:28:22;3.63;;;3.15;;
52035;SDS011;38046;49.448;32.074;2023-03-29T07:30:48;8.02;;;3.13;;
52035;SDS011;38046;49.448;32.074;2023-03-29T07:33:14;3.03;;;2.65;;
52035;SDS011;38046;49.448;32.074;2023-03-29T07:35:39;3.50;;;3.08;;
52035;SDS011;38046;49.448;32.074;2023-03-29T07:38:07;3.72;;;3.30;;
52035;SDS011;38046;49.448;32.074;2023-03-29T07:40:33;3.55;;;3.00;;
52035;SDS011;38046;49.448;32.074;2023-03-29T07:42:59;2.88;;;2.63;;
52035;SDS011;38046;49.448;32.074;2023-03-29T07:45:26;3.45;;;3.00;;
52035;SDS011;38046;49.448;32.074;2023-03-29T07:47:56;4.55;;;2.70;;
52035;SDS011;38046;49.448;32.074;2023-03-29T07:50:23;3.00;;;2.72;;
52035;SDS011;38046;49.448;32.074;2023-03-29T07:52:50;3.40;;;3.05;;
52035;SDS011;38046;49.448;32.074;2023-03-29T07:55:15;3.10;;;2.80;;
52035;SDS011;38046;49.448;32.074;2023-03-29T07:57:41;3.20;;;2.90;;
52035;SDS011;38046;49.448;32.074;2023-03-29T08:00:08;3.67;;;2.97;;
52035;SDS011;38046;49.448;32.074;2023-03-29T08:02:37;3.15;;;2.90;;
52035;SDS011;38046;49.448;32.074;2023-03-29T08:05:03;3.67;;;3.00;;
52035;SDS011;38046;49.448;32.074;2023-03-29T08:07:29;3.22;;;2.92;;
52035;SDS011;38046;49.448;32.074;2023-03-29T08:09:55;2.95;;;2.75;;
52035;SDS011;38046;49.448;32.074;2023-03-29T08:12:21;3.95;;;3.30;;
52035;SDS011;38046;49.448;32.074;2023-03-29T08:14:46;5.00;;;3.40;;
52035;SDS011;38046;49.448;32.074;2023-03-29T08:17:12;3.63;;;3.20;;
52035;SDS011;38046;49.448;32.074;2023-03-29T08:19:38;4.32;;;2.90;;
52035;SDS011;38046;49.448;32.074;2023-03-29T08:22:03;3.47;;;3.15;;
52035;SDS011;38046;49.448;32.074;2023-03-29T08:24:29;3.15;;;2.85;;
52035;SDS011;38046;49.448;32.074;2023-03-29T08:26:55;3.35;;;2.75;;
52035;SDS011;38046;49.448;32.074;2023-03-29T08:29:20;5.50;;;3.47;;
52035;SDS011;38046;49.448;32.074;2023-03-29T08:31:46;5.22;;;2.90;;
52035;SDS011;38046;49.448;32.074;2023-03-29T08:34:13;3.05;;;2.80;;
52035;SDS011;38046;49.448;32.074;2023-03-29T08:36:38;3.30;;;3.00;;
52035;SDS011;38046;49.448;32.074;2023-03-29T08:39:04;3.08;;;2.78;;
52035;SDS011;38046;49.448;32.074;2023-03-29T08:44:07;4.60;;;2.88;;
52035;SDS011;38046;49.448;32.074;2023-03-29T08:49:24;6.85;;;3.10;;
52035;SDS011;38046;49.448;32.074;2023-03-29T08:51:55;2.90;;;2.70;;
52035;SDS011;38046;49.448;32.074;2023-03-29T08:54:24;3.45;;;3.15;;
52035;SDS011;38046;49.448;32.074;2023-03-29T08:56:56;3.08;;;2.63;;
52035;SDS011;38046;49.448;32.074;2023-03-29T08:59:28;3.60;;;3.30;;
52035;SDS011;38046;49.448;32.074;2023-03-29T09:01:59;3.22;;;2.92;;
52035;SDS011;38046;49.448;32.074;2023-03-29T09:04:37;3.15;;;2.90;;
52035;SDS011;38046;49.448;32.074;2023-03-29T09:07:09;3.95;;;3.17;;
52035;SDS011;38046;49.448;32.074;2023-03-29T09:09:35;4.57;;;3.22;;
52035;SDS011;38046;49.448;32.074;2023-03-29T09:15:08;3.63;;;3.05;;
52035;SDS011;38046;49.448;32.074;2023-03-29T09:20:20;3.20;;;2.90;;
52035;SDS011;38046;49.448;32.074;2023-03-29T09:23:06;3.67;;;2.88;;
52035;SDS011;38046;49.448;32.074;2023-03-29T09:25:59;3.38;;;2.90;;
52035;SDS011;38046;49.448;32.074;2023-03-29T09:28:44;3.58;;;3.00;;
52035;SDS011;38046;49.448;32.074;2023-03-29T09:31:32;3.53;;;3.15;;
52035;SDS011;38046;49.448;32.074;2023-03-29T09:34:12;3.35;;;3.05;;
52035;SDS011;38046;49.448;32.074;2023-03-29T09:36:53;3.63;;;3.13;;
52035;SDS011;38046;49.448;32.074;2023-03-29T09:39:24;4.53;;;3.00;;
52035;SDS011;38046;49.448;32.074;2023-03-29T09:44:24;3.47;;;3.00;;
52035;SDS011;38046;49.448;32.074;2023-03-29T09:47:06;3.42;;;3.13;;
52035;SDS011;38046;49.448;32.074;2023-03-29T09:49:37;3.42;;;3.13;;
52035;SDS011;38046;49.448;32.074;2023-03-29T09:52:07;3.40;;;3.10;;
52035;SDS011;38046;49.448;32.074;2023-03-29T09:54:37;4.10;;;3.30;;
52035;SDS011;38046;49.448;32.074;2023-03-29T09:57:03;4.20;;;3.20;;
52035;SDS011;38046;49.448;32.074;2023-03-29T09:59:28;3.80;;;3.13;;
52035;SDS011;38046;49.448;32.074;2023-03-29T10:02:03;4.32;;;3.70;;
52035;SDS011;38046;49.448;32.074;2023-03-29T10:04:34;3.70;;;3.40;;
52035;SDS011;38046;49.448;32.074;2023-03-29T10:07:00;3.33;;;3.03;;
52035;SDS011;38046;49.448;32.074;2023-03-29T10:09:28;4.70;;;3.42;;
52035;SDS011;38046;49.448;32.074;2023-03-29T10:11:55;3.30;;;3.00;;
52035;SDS011;38046;49.448;32.074;2023-03-29T10:17:04;3.10;;;2.80;;
52035;SDS011;38046;49.448;32.074;2023-03-29T10:19:45;4.40;;;3.05;;
52035;SDS011;38046;49.448;32.074;2023-03-29T10:22:15;3.30;;;3.00;;
52035;SDS011;38046;49.448;32.074;2023-03-29T10:25:08;4.03;;;3.15;;
52035;SDS011;38046;49.448;32.074;2023-03-29T10:27:39;4.18;;;3.20;;
52035;SDS011;38046;49.448;32.074;2023-03-29T10:30:08;3.30;;;3.00;;
52035;SDS011;38046;49.448;32.074;2023-03-29T10:32:37;3.70;;;3.15;;
52035;SDS011;38046;49.448;32.074;2023-03-29T10:35:08;3.20;;;2.90;;
52035;SDS011;38046;49.448;32.074;2023-03-29T10:37:41;3.30;;;3.00;;
52035;SDS011;38046;49.448;32.074;2023-03-29T10:40:17;3.70;;;3.33;;
52035;SDS011;38046;49.448;32.074;2023-03-29T10:42:49;3.33;;;3.03;;
52035;SDS011;38046;49.448;32.074;2023-03-29T10:45:34;3.38;;;3.08;;
52035;SDS011;38046;49.448;32.074;2023-03-29T10:48:02;3.47;;;3.17;;
52035;SDS011;38046;49.448;32.074;2023-03-29T10:50:32;4.25;;;3.15;;
52035;SDS011;38046;49.448;32.074;2023-03-29T10:53:02;3.58;;;3.00;;
52035;SDS011;38046;49.448;32.074;2023-03-29T10:55:40;3.63;;;3.20;;
52035;SDS011;38046;49.448;32.074;2023-03-29T11:01:33;3.90;;;3.50;;
52035;SDS011;38046;49.448;32.074;2023-03-29T11:04:19;3.30;;;3.00;;
52035;SDS011;38046;49.448;32.074;2023-03-29T11:26:32;3.40;;;3.10;;
52035;SDS011;38046;49.448;32.074;2023-03-29T11:29:17;3.72;;;3.35;;
52035;SDS011;38046;49.448;32.074;2023-03-29T11:42:34;3.30;;;3.00;;
52035;SDS011;38046;49.448;32.074;2023-03-29T11:45:05;4.30;;;3.35;;
52035;SDS011;38046;49.448;32.074;2023-03-29T11:47:38;3.38;;;3.08;;
52035;SDS011;38046;49.448;32.074;2023-03-29T11:53:16;3.20;;;2.90;;
52035;SDS011;38046;49.448;32.074;2023-03-29T11:56:07;3.13;;;2.83;;
52035;SDS011;38046;49.448;32.074;2023-03-29T11:58:40;3.08;;;2.85;;
52035;SDS011;38046;49.448;32.074;2023-03-29T12:01:13;5.85;;;3.85;;
52035;SDS011;38046;49.448;32.074;2023-03-29T12:11:42;2.92;;;2.72;;
52035;SDS011;38046;49.448;32.074;2023-03-29T12:16:50;3.83;;;3.42;;
52035;SDS011;38046;49.448;32.074;2023-03-29T12:19:29;4.28;;;3.60;;
52035;SDS011;38046;49.448;32.074;2023-03-29T12:21:59;4.10;;;3.25;;
52035;SDS011;38046;49.448;32.074;2023-03-29T12:24:27;3.55;;;3.20;;
52035;SDS011;38046;49.448;32.074;2023-03-29T12:29:51;3.40;;;3.08;;
52035;SDS011;38046;49.448;32.074;2023-03-29T12:40:47;3.63;;;3.10;;
52035;SDS011;38046;49.448;32.074;2023-03-29T12:46:13;2.95;;;2.72;;
52035;SDS011;38046;49.448;32.074;2023-03-29T12:48:43;3.42;;;3.05;;
52035;SDS011;38046;49.448;32.074;2023-03-29T12:51:15;3.53;;;3.15;;
52035;SDS011;38046;49.448;32.074;2023-03-29T12:53:45;3.05;;;2.78;;
52035;SDS011;38046;49.448;32.074;2023-03-29T12:56:14;3.83;;;3.20;;
52035;SDS011;38046;49.448;32.074;2023-03-29T12:58:47;3.58;;;3.08;;
52035;SDS011;38046;49.448;32.074;2023-03-29T13:01:27;3.50;;;3.20;;
52035;SDS011;38046;49.448;32.074;2023-03-29T13:06:57;3.58;;;3.15;;
52035;SDS011;38046;49.448;32.074;2023-03-29T13:14:43;3.92;;;3.55;;
52035;SDS011;38046;49.448;32.074;2023-03-29T13:17:21;3.95;;;3.30;;
52035;SDS011;38046;49.448;32.074;2023-03-29T13:25:51;3.75;;;3.00;;
52035;SDS011;38046;49.448;32.074;2023-03-29T13:31:46;3.97;;;3.30;;
52035;SDS011;38046;49.448;32.074;2023-03-29T13:39:57;4.85;;;3.17;;
52035;SDS011;38046;49.448;32.074;2023-03-29T13:42:24;3.83;;;3.40;;
52035;SDS011;38046;49.448;32.074;2023-03-29T13:45:21;4.78;;;3.75;;
52035;SDS011;38046;49.448;32.074;2023-03-29T13:50:54;4.07;;;3.58;;
52035;SDS011;38046;49.448;32.074;2023-03-29T13:56:24;3.60;;;3.08;;
52035;SDS011;38046;49.448;32.074;2023-03-29T14:01:28;3.88;;;3.42;;
52035;SDS011;38046;49.448;32.074;2023-03-29T14:04:09;3.88;;;3.40;;
52035;SDS011;38046;49.448;32.074;2023-03-29T14:06:47;3.60;;;3.30;;
52035;SDS011;38046;49.448;32.074;2023-03-29T14:09:16;4.13;;;3.47;;
52035;SDS011;38046;49.448;32.074;2023-03-29T14:11:44;4.90;;;3.40;;
52035;SDS011;38046;49.448;32.074;2023-03-29T14:14:11;3.85;;;3.25;;
52035;SDS011;38046;49.448;32.074;2023-03-29T14:16:37;4.50;;;3.65;;
52035;SDS011;38046;49.448;32.074;2023-03-29T14:19:06;4.20;;;3.53;;
52035;SDS011;38046;49.448;32.074;2023-03-29T14:21:41;3.45;;;3.10;;
52035;SDS011;38046;49.448;32.074;2023-03-29T14:24:21;3.80;;;3.35;;
52035;SDS011;38046;49.448;32.074;2023-03-29T14:26:51;5.00;;;3.45;;
52035;SDS011;38046;49.448;32.074;2023-03-29T14:29:17;5.70;;;3.92;;
52035;SDS011;38046;49.448;32.074;2023-03-29T14:31:43;4.50;;;3.58;;
52035;SDS011;38046;49.448;32.074;2023-03-29T14:34:13;4.97;;;3.70;;
52035;SDS011;38046;49.448;32.074;2023-03-29T14:36:40;4.70;;;3.60;;
52035;SDS011;38046;49.448;32.074;2023-03-29T14:39:14;4.20;;;3.30;;
52035;SDS011;38046;49.448;32.074;2023-03-29T14:41:48;4.57;;;3.80;;
52035;SDS011;38046;49.448;32.074;2023-03-29T14:44:16;5.07;;;3.83;;
52035;SDS011;38046;49.448;32.074;2023-03-29T14:46:44;5.40;;;4.25;;
52035;SDS011;38046;49.448;32.074;2023-03-29T14:49:14;4.93;;;4.43;;
52035;SDS011;38046;49.448;32.074;2023-03-29T14:51:42;5.60;;;4.60;;
52035;SDS011;38046;49.448;32.074;2023-03-29T14:54:16;5.07;;;3.33;;
52035;SDS011;38046;49.448;32.074;2023-03-29T14:56:48;4.65;;;3.88;;
52035;SDS011;38046;49.448;32.074;2023-03-29T14:59:18;3.53;;;3.20;;
52035;SDS011;38046;49.448;32.074;2023-03-29T15:01:51;4.10;;;3.22;;
52035;SDS011;38046;49.448;32.074;2023-03-29T15:04:16;5.82;;;3.75;;
52035;SDS011;38046;49.448;32.074;2023-03-29T15:06:42;3.83;;;3.40;;
52035;SDS011;38046;49.448;32.074;2023-03-29T15:09:15;4.90;;;3.70;;
52035;SDS011;38046;49.448;32.074;2023-03-29T15:11:49;4.47;;;3.63;;
52035;SDS011;38046;49.448;32.074;2023-03-29T15:14:20;4.10;;;3.25;;
52035;SDS011;38046;49.448;32.074;2023-03-29T15:16:48;4.65;;;3.40;;
52035;SDS011;38046;49.448;32.074;2023-03-29T15:19:17;4.93;;;3.78;;
52035;SDS011;38046;49.448;32.074;2023-03-29T15:21:46;5.53;;;4.00;;
52035;SDS011;38046;49.448;32.074;2023-03-29T15:24:21;4.10;;;3.70;;
52035;SDS011;38046;49.448;32.074;2023-03-29T15:27:18;4.03;;;3.22;;
52035;SDS011;38046;49.448;32.074;2023-03-29T15:29:44;4.30;;;3.83;;
52035;SDS011;38046;49.448;32.074;2023-03-29T15:32:20;3.40;;;3.10;;
52035;SDS011;38046;49.448;32.074;2023-03-29T15:35:07;3.90;;;3.50;;
52035;SDS011;38046;49.448;32.074;2023-03-29T15:37:46;4.47;;;3.58;;
52035;SDS011;38046;49.448;32.074;2023-03-29T15:40:15;4.93;;;3.58;;
52035;SDS011;38046;49.448;32.074;2023-03-29T15:42:42;4.35;;;3.78;;
52035;SDS011;38046;49.448;32.074;2023-03-29T15:45:17;4.25;;;3.25;;
52035;SDS011;38046;49.448;32.074;2023-03-29T15:47:45;4.78;;;3.70;;
52035;SDS011;38046;49.448;32.074;2023-03-29T15:50:11;4.68;;;3.65;;
52035;SDS011;38046;49.448;32.074;2023-03-29T15:52:37;3.90;;;3.50;;
52035;SDS011;38046;49.448;32.074;2023-03-29T15:55:03;3.95;;;3.42;;
52035;SDS011;38046;49.448;32.074;2023-03-29T15:57:29;4.45;;;3.03;;
52035;SDS011;38046;49.448;32.074;2023-03-29T15:59:55;4.97;;;3.40;;
52035;SDS011;38046;49.448;32.074;2023-03-29T16:02:22;4.20;;;3.80;;
52035;SDS011;38046;49.448;32.074;2023-03-29T16:04:49;3.67;;;3.25;;
52035;SDS011;38046;49.448;32.074;2023-03-29T16:07:16;4.32;;;3.70;;
52035;SDS011;38046;49.448;32.074;2023-03-29T16:09:42;3.60;;;3.30;;
52035;SDS011;38046;49.448;32.074;2023-03-29T16:12:10;5.18;;;3.80;;
52035;SDS011;38046;49.448;32.074;2023-03-29T16:14:36;3.90;;;3.45;;
52035;SDS011;38046;49.448;32.074;2023-03-29T16:17:02;4.00;;;3.45;;
52035;SDS011;38046;49.448;32.074;2023-03-29T16:19:28;3.80;;;3.28;;
52035;SDS011;38046;49.448;32.074;2023-03-29T16:21:55;4.20;;;3.15;;
52035;SDS011;38046;49.448;32.074;2023-03-29T16:24:23;4.25;;;3.20;;
52035;SDS011;38046;49.448;32.074;2023-03-29T16:26:51;4.97;;;3.55;;
52035;SDS011;38046;49.448;32.074;2023-03-29T16:29:17;4.95;;;3.92;;
52035;SDS011;38046;49.448;32.074;2023-03-29T16:31:44;5.15;;;3.80;;
52035;SDS011;38046;49.448;32.074;2023-03-29T16:34:11;4.65;;;3.58;;
52035;SDS011;38046;49.448;32.074;2023-03-29T16:36:40;4.18;;;3.38;;
52035;SDS011;38046;49.448;32.074;2023-03-29T16:39:08;4.60;;;3.75;;
52035;SDS011;38046;49.448;32.074;2023-03-29T16:41:34;4.78;;;3.53;;
52035;SDS011;38046;49.448;32.074;2023-03-29T16:44:00;3.70;;;3.28;;
52035;SDS011;38046;49.448;32.074;2023-03-29T16:46:27;4.07;;;3.60;;
52035;SDS011;38046;49.448;32.074;2023-03-29T16:48:53;3.95;;;3.20;;
52035;SDS011;38046;49.448;32.074;2023-03-29T16:51:19;5.85;;;4.35;;